Time;durP1;ratioP1;P1;durP2;ratioP2;P2;SDS_P1;SDS_P2;PMS_P1;PMS_P2;Temp;Humidity;BMP_temperature;BMP_pressure;BME280_temperature;BME280_humidity;BME280_pressure;Samples;Min_cycle;Max_cycle;Signal;HPM_P1;HPM_P2
2024/02/17 00:02:40;;;;;;;8.43;3.63;;;;;;;1.60;100.00;101561.06;31239213;28;20045;-89
2024/02/17 00:17:43;;;;;;;9.27;3.77;;;;;;;1.54;100.00;101557.00;31269125;28;20499;-82
2024/02/17 00:32:45;;;;;;;9.17;5.20;;;;;;;1.57;100.00;101551.78;31214406;28;20133;-88
2024/02/17 00:47:47;;;;;;;9.60;4.53;;;;;;;1.56;100.00;101542.19;31248361;28;20049;-89
2024/02/17 01:02:50;;;;;;;6.27;3.40;;;;;;;1.53;100.00;101534.81;31273166;28;20045;-89
2024/02/17 01:17:52;;;;;;;6.33;3.20;;;;;;;1.37;100.00;101547.16;31297156;28;20053;-83
2024/02/17 01:32:54;;;;;;;9.50;3.33;;;;;;;1.46;100.00;101528.38;31221908;28;20407;-82
2024/02/17 01:47:57;;;;;;;6.37;4.77;;;;;;;1.53;100.00;101548.19;31234028;28;20057;-82
2024/02/17 02:03:00;;;;;;;8.97;4.97;;;;;;;1.90;100.00;101532.38;31207708;28;20053;-83
2024/02/17 02:18:02;;;;;;;11.33;4.43;;;;;;;1.60;100.00;101532.41;31295323;28;20080;-90
2024/02/17 02:33:05;;;;;;;15.53;5.07;;;;;;;1.63;100.00;101539.81;31292055;28;20056;-88
2024/02/17 02:48:08;;;;;;;11.87;4.43;;;;;;;1.64;100.00;101562.78;31281030;28;20290;-89
2024/02/17 03:03:11;;;;;;;19.27;5.77;;;;;;;1.57;100.00;101556.38;31276144;28;20057;-88
2024/02/17 03:18:16;;;;;;;8.43;4.33;;;;;;;1.83;100.00;101565.06;31237479;28;20109;-83
2024/02/17 03:33:18;;;;;;;24.23;5.67;;;;;;;1.62;100.00;101548.94;31265214;28;20064;-88
2024/02/17 03:48:27;;;;;;;12.03;4.70;;;;;;;1.55;100.00;101531.81;31276902;28;20053;-82
2024/02/17 04:03:31;;;;;;;17.47;6.07;;;;;;;1.73;100.00;101530.59;31285966;28;20057;-88
2024/02/17 04:18:37;;;;;;;9.07;5.27;;;;;;;1.77;100.00;101544.91;31255988;28;20410;-88
2024/02/17 04:33:40;;;;;;;9.47;6.23;;;;;;;1.68;100.00;101552.97;31276317;28;20459;-89
2024/02/17 04:48:42;;;;;;;13.60;6.00;;;;;;;1.63;100.00;101555.88;31296810;28;20054;-83
2024/02/17 05:03:45;;;;;;;17.07;8.10;;;;;;;0.79;100.00;101577.19;31268890;28;20461;-84
2024/02/17 05:18:47;;;;;;;12.67;6.83;;;;;;;1.52;100.00;101580.63;31269638;28;20052;-83
2024/02/17 05:33:49;;;;;;;12.87;6.07;;;;;;;1.34;100.00;101596.75;31254427;28;20435;-88
2024/02/17 05:48:52;;;;;;;16.03;8.03;;;;;;;2.26;98.57;101615.69;31262075;28;20537;-88
2024/02/17 06:03:57;;;;;;;15.67;6.20;;;;;;;3.73;80.15;101633.13;31264447;28;20119;-89
2024/02/17 06:34:21;;;;;;;23.83;9.60;;;;;;;5.98;58.17;101614.03;31260495;28;20056;-83
2024/02/17 06:49:23;;;;;;;21.20;8.10;;;;;;;6.98;53.91;101596.09;31246130;28;20140;-83
2024/02/17 07:04:26;;;;;;;18.73;7.33;;;;;;;7.96;50.54;101611.66;31297564;28;20045;-89
2024/02/17 07:19:32;;;;;;;14.77;4.47;;;;;;;8.43;47.41;101618.53;31287687;28;20057;-88
2024/02/17 07:34:36;;;;;;;26.43;7.13;;;;;;;8.81;46.05;101618.22;31296315;28;20476;-86
2024/02/17 07:49:39;;;;;;;18.10;7.10;;;;;;;8.63;47.55;101613.75;31246892;28;20048;-86
2024/02/17 08:04:45;;;;;;;27.23;8.63;;;;;;;9.11;45.60;101618.19;31275556;28;20518;-84
2024/02/17 08:19:47;;;;;;;22.73;7.27;;;;;;;9.50;43.90;101604.22;31254752;28;20052;-87
2024/02/17 08:34:50;;;;;;;27.10;7.17;;;;;;;9.81;43.66;101594.78;31262939;28;20552;-83
2024/02/17 08:49:54;;;;;;;15.77;5.63;;;;;;;10.46;42.30;101578.50;31271537;28;20049;-83
2024/02/17 09:04:56;;;;;;;14.43;6.60;;;;;;;11.19;42.77;101575.63;31320668;28;20049;-90
2024/02/17 09:20:11;;;;;;;12.13;5.37;;;;;;;12.73;40.57;101563.28;31326586;28;20041;-89
2024/02/17 09:35:33;;;;;;;19.23;5.90;;;;;;;12.19;40.90;101549.91;31264415;28;20073;-90
2024/02/17 09:50:44;;;;;;;11.03;5.70;;;;;;;12.07;41.42;101538.66;31302755;28;20037;-89
2024/02/17 10:05:52;;;;;;;10.83;4.23;;;;;;;12.33;40.94;101540.13;31209030;28;20049;-87
2024/02/17 10:21:01;;;;;;;13.70;5.17;;;;;;;12.93;41.18;101515.28;31342521;28;20880;-85
2024/02/17 10:36:06;;;;;;;17.97;5.23;;;;;;;13.49;40.79;101502.38;31339663;22;20045;-78
2024/02/17 10:51:08;;;;;;;11.67;4.47;;;;;;;13.14;41.57;101498.00;31341939;28;20045;-78
2024/02/17 11:06:17;;;;;;;10.60;4.97;;;;;;;13.25;41.57;101485.84;31343112;28;20140;-80
2024/02/17 11:21:36;;;;;;;10.57;5.73;;;;;;;13.42;41.64;101475.19;31360745;28;20144;-78
2024/02/17 11:36:39;;;;;;;11.80;5.20;;;;;;;13.26;42.85;101472.97;31341467;28;20492;-78
2024/02/17 11:51:42;;;;;;;11.40;4.40;;;;;;;13.30;43.10;101469.03;31345664;28;20501;-77
2024/02/17 12:06:47;;;;;;;11.60;4.77;;;;;;;13.85;42.91;101470.84;31382540;28;21913;-79
2024/02/17 12:21:51;;;;;;;18.02;5.03;;;;;;;14.85;41.11;101469.53;31363930;28;20053;-77
2024/02/17 12:36:53;;;;;;;16.43;5.20;;;;;;;14.62;41.35;101462.84;31329065;28;20056;-78
2024/02/17 12:51:57;;;;;;;12.43;6.07;;;;;;;11.02;48.47;101479.31;31369765;28;20139;-77
2024/02/17 13:06:59;;;;;;;8.33;4.53;;;;;;;9.44;55.43;101481.81;31357527;28;20060;-77
2024/02/17 13:22:03;;;;;;;13.50;5.27;;;;;;;9.06;62.42;101471.44;31375206;28;20051;-79
2024/02/17 13:37:05;;;;;;;12.27;4.37;;;;;;;8.54;68.75;101468.63;31364871;28;20057;-78
2024/02/17 13:52:07;;;;;;;11.00;3.90;;;;;;;8.43;72.29;101465.06;31367346;28;20049;-77
2024/02/17 14:07:09;;;;;;;12.73;3.93;;;;;;;8.37;75.12;101463.81;31351336;28;20053;-79
2024/02/17 14:22:16;;;;;;;6.73;3.97;;;;;;;8.02;80.59;101457.97;31368118;28;20048;-78
2024/02/17 14:37:18;;;;;;;15.70;4.13;;;;;;;7.83;84.16;101467.78;31355148;28;20136;-79
2024/02/17 14:52:24;;;;;;;7.73;3.27;;;;;;;7.72;87.71;101469.56;31333913;28;20073;-75
2024/02/17 15:07:26;;;;;;;8.30;3.50;;;;;;;7.59;91.46;101473.63;31333924;28;20476;-78
2024/02/17 15:22:28;;;;;;;9.33;4.87;;;;;;;7.47;93.98;101484.66;31381914;28;20058;-76
2024/02/17 15:37:30;;;;;;;18.07;5.70;;;;;;;7.34;94.17;101489.44;31366071;28;20089;-76
2024/02/17 15:52:32;;;;;;;18.37;6.17;;;;;;;7.22;96.25;101491.59;31355153;28;20081;-79
2024/02/17 16:07:34;;;;;;;19.47;6.27;;;;;;;7.13;96.63;101500.69;31339992;28;20045;-79
2024/02/17 16:22:42;;;;;;;14.70;6.40;;;;;;;6.95;99.21;101505.03;31360131;28;20049;-77
2024/02/17 16:37:44;;;;;;;14.20;7.33;;;;;;;6.28;100.00;101512.63;31299339;28;20072;-76
2024/02/17 16:52:46;;;;;;;18.67;7.47;;;;;;;6.04;100.00;101499.41;31234467;28;20091;-76
2024/02/17 17:07:48;;;;;;;21.87;7.93;;;;;;;5.91;100.00;101501.44;31212619;28;20065;-78
2024/02/17 17:22:50;;;;;;;20.60;8.33;;;;;;;5.90;100.00;101505.28;31213964;28;20042;-76
2024/02/17 17:37:52;;;;;;;21.17;8.83;;;;;;;5.70;100.00;101501.72;31267471;28;20053;-75
2024/02/17 17:52:54;;;;;;;26.70;9.67;;;;;;;5.73;100.00;101505.63;31321841;28;20128;-78
2024/02/17 18:07:59;;;;;;;21.87;8.30;;;;;;;5.41;100.00;101505.69;31314090;28;20053;-77
2024/02/17 18:23:01;;;;;;;29.73;10.23;;;;;;;5.32;100.00;101512.38;31309138;28;20170;-77
2024/02/17 18:38:03;;;;;;;21.70;9.47;;;;;;;5.26;100.00;101513.75;31309849;28;20055;-79
2024/02/17 18:53:05;;;;;;;21.00;10.07;;;;;;;5.00;100.00;101512.34;31323461;28;20060;-81
2024/02/17 19:08:24;;;;;;;19.50;8.67;;;;;;;4.87;100.00;101502.81;31342715;28;20092;-80
2024/02/17 19:23:29;;;;;;;15.97;7.50;;;;;;;4.34;100.00;101510.22;31316951;28;20045;-75
2024/02/17 19:38:31;;;;;;;25.87;7.90;;;;;;;4.08;100.00;101515.22;31315468;28;20148;-78
2024/02/17 19:53:33;;;;;;;14.33;7.10;;;;;;;4.03;100.00;101513.53;31324097;28;20089;-78
2024/02/17 20:08:35;;;;;;;18.90;6.57;;;;;;;4.07;100.00;101497.53;31316942;28;20107;-76
2024/02/17 20:24:24;;;;;;;18.13;6.13;;;;;;;4.08;100.00;101513.31;31358858;28;20048;-80
2024/02/17 20:39:26;;;;;;;20.53;6.63;;;;;;;3.72;100.00;101502.66;31411625;28;20547;-81
2024/02/17 20:54:29;;;;;;;12.23;5.57;;;;;;;3.56;100.00;101494.47;31362065;28;20048;-79
2024/02/17 21:09:31;;;;;;;27.50;5.43;;;;;;;3.27;100.00;101489.34;31383107;28;20045;-82
2024/02/17 21:24:33;;;;;;;17.90;4.63;;;;;;;3.03;100.00;101493.56;31373782;28;20041;-81
2024/02/17 21:39:35;;;;;;;14.97;4.53;;;;;;;2.95;100.00;101486.41;31383726;28;20061;-81
2024/02/17 21:54:38;;;;;;;15.13;4.07;;;;;;;3.01;100.00;101485.06;31337110;28;20074;-76
2024/02/17 22:09:40;;;;;;;5.33;2.67;;;;;;;2.79;100.00;101482.78;31354718;28;20100;-81
2024/02/17 22:24:42;;;;;;;28.07;4.73;;;;;;;2.43;100.00;101467.38;31326183;28;20048;-81
2024/02/17 22:39:44;;;;;;;13.00;3.80;;;;;;;2.30;100.00;101455.84;31367372;28;20063;-80
2024/02/17 22:54:47;;;;;;;15.30;3.70;;;;;;;2.19;100.00;101460.00;31356386;28;20137;-81
2024/02/17 23:09:51;;;;;;;12.37;3.70;;;;;;;2.11;100.00;101450.19;31365251;28;20057;-80
2024/02/17 23:24:53;;;;;;;15.33;3.27;;;;;;;1.77;100.00;101453.09;31327692;28;20056;-75
2024/02/17 23:39:55;;;;;;;15.60;5.10;;;;;;;1.61;100.00;101442.19;31337946;28;20053;-75
2024/02/17 23:54:58;;;;;;;15.93;3.60;;;;;;;1.47;100.00;101441.63;31369198;28;20045;-76
